Delta Virtual Airport Information Service

Bangkok Suvarnabhumi Airport

ICAO: VTBS Country: Thailand
Latitude: 13.6811 Longitude: 100.747
Latest Arrival : DAC111 (VECC-VTBS) Latest Departure : DAC925 (VTBS-RJBB)


WX CaptureLIVE
Data provided by noaa.gov | Fetched at 14:38:05

METAR : VTBS 291900Z VRB03KT 9000 FEW020 BKN050 BKN080 27/27 Q1007 NOSIG

TAF : VTBS 291700Z 2918/3024 22008KT 9999 FEW020 SCT040 TEMPO 2920/2924 24015KT 6000 -TSRA FEW018CB SCT030 TEMPO 3010/3014 24015KT 4000 TSRA FEW018CB SCT030 BKN090


Runway Data for VTBS
Data provided by openaviationdata.com

Runway ID Mag Var Hdg Length Elevation Surface ILS Freq ILS Id ILS Slope
01L 0 14° 12139 ft 5 ft Asphalt 109.1 ISWS 0
01R 0 14° 12139 ft 5 ft Asphalt 110.1 ISES 0
19L 0 194.4° 12139 ft 5 ft Asphalt 110.5 ISEN 0
19R 0 194.4° 12139 ft 5 ft Asphalt 109.5 ISWN 0

Bangkok Suvarnabhumi Airport, Thailand
Use only for reference purposes



Not for navigational purposes.